Time;durP1;ratioP1;P1;durP2;ratioP2;P2;SDS_P1;SDS_P2;PMS_P1;PMS_P2;Temp;Humidity;BMP_temperature;BMP_pressure;BME280_temperature;BME280_humidity;BME280_pressure;Samples;Min_cycle;Max_cycle;Signal;HPM_P1;HPM_P2
2022/09/13 04:00:53;;;;;;;7.13;5.00;;;14.20;99.90;;;;;;5824476;23;20502;-72
2022/09/13 04:03:20;;;;;;;6.23;4.50;;;14.30;99.90;;;;;;4986007;28;20458;-73
2022/09/13 04:05:47;;;;;;;7.10;5.10;;;14.30;99.90;;;;;;4985066;28;20448;-73
2022/09/13 04:08:14;;;;;;;7.07;4.60;;;14.30;99.90;;;;;;4985395;28;20475;-73
2022/09/13 04:10:41;;;;;;;5.87;4.70;;;14.30;99.90;;;;;;4986079;28;20475;-73
2022/09/13 04:13:07;;;;;;;8.73;5.10;;;14.30;99.90;;;;;;4985803;28;20463;-73
2022/09/13 04:15:34;;;;;;;6.83;5.30;;;14.30;99.90;;;;;;4985505;28;20463;-74
2022/09/13 04:18:02;;;;;;;6.30;4.90;;;14.30;99.90;;;;;;4986150;28;20462;-73
2022/09/13 04:20:29;;;;;;;6.40;4.60;;;14.20;99.90;;;;;;4985857;28;20476;-73
2022/09/13 04:22:57;;;;;;;6.07;4.80;;;14.20;99.90;;;;;;4985580;28;20892;-75
2022/09/13 04:25:24;;;;;;;9.30;5.10;;;14.20;99.90;;;;;;4985047;28;20459;-74
2022/09/13 04:27:54;;;;;;;7.03;4.90;;;14.20;99.90;;;;;;4985890;28;20460;-73
2022/09/13 04:30:22;;;;;;;5.50;4.60;;;14.20;99.90;;;;;;4989145;28;20475;-68
2022/09/13 04:32:49;;;;;;;7.50;5.00;;;14.20;99.90;;;;;;4989533;28;20455;-67
2022/09/13 04:35:18;;;;;;;4.57;4.10;;;14.20;99.90;;;;;;4989380;28;20797;-68
2022/09/13 04:37:45;;;;;;;5.83;4.53;;;14.10;99.90;;;;;;4989747;28;20465;-68
2022/09/13 04:40:13;;;;;;;6.93;4.80;;;14.00;99.90;;;;;;4990044;28;20455;-68
2022/09/13 04:42:40;;;;;;;6.67;4.53;;;14.00;99.90;;;;;;4989742;28;20464;-69
2022/09/13 04:45:08;;;;;;;6.37;5.00;;;14.00;99.90;;;;;;4988985;28;20463;-68
2022/09/13 04:47:34;;;;;;;7.50;5.70;;;14.00;99.90;;;;;;4989914;28;20459;-68
2022/09/13 04:50:01;;;;;;;10.23;5.67;;;14.00;99.90;;;;;;4989148;28;20490;-76
2022/09/13 04:52:29;;;;;;;6.20;4.90;;;13.90;99.90;;;;;;4989702;28;20479;-77
2022/09/13 04:54:59;;;;;;;6.87;5.47;;;14.00;99.90;;;;;;4988631;28;20467;-76
2022/09/13 04:57:25;;;;;;;6.63;4.83;;;14.00;99.90;;;;;;4989301;28;21405;-76
2022/09/13 04:59:52;;;;;;;5.40;4.90;;;14.00;99.90;;;;;;4989557;28;20452;-75
2022/09/13 05:02:19;;;;;;;6.50;5.27;;;14.10;99.90;;;;;;4989205;28;20483;-76
2022/09/13 05:04:46;;;;;;;5.20;4.70;;;14.10;99.90;;;;;;4988392;28;20467;-76
2022/09/13 05:07:13;;;;;;;7.63;4.77;;;14.10;99.90;;;;;;4989050;28;20932;-76
2022/09/13 05:09:47;;;;;;;5.20;4.63;;;14.10;99.90;;;;;;4989294;28;20495;-77
2022/09/13 05:12:14;;;;;;;5.63;5.13;;;14.10;99.90;;;;;;4989694;28;20537;-76
2022/09/13 05:14:41;;;;;;;7.80;5.57;;;14.10;99.90;;;;;;4988697;28;20459;-73
2022/09/13 05:17:08;;;;;;;7.70;5.37;;;14.10;99.90;;;;;;5002198;28;20462;-75
2022/09/13 05:19:34;;;;;;;5.20;4.70;;;14.20;99.90;;;;;;5009648;28;20466;-75
2022/09/13 05:22:01;;;;;;;6.00;5.37;;;14.20;99.90;;;;;;5009915;28;20485;-75
2022/09/13 05:24:28;;;;;;;5.53;4.87;;;14.20;99.90;;;;;;5007305;28;20458;-77
2022/09/13 05:26:56;;;;;;;12.23;6.80;;;14.30;99.90;;;;;;5007907;28;20454;-74
2022/09/13 05:29:23;;;;;;;5.73;5.10;;;14.30;99.90;;;;;;5008399;28;20497;-75
2022/09/13 05:31:50;;;;;;;6.07;5.20;;;14.30;99.90;;;;;;5006896;28;20485;-75
2022/09/13 05:34:18;;;;;;;9.27;5.73;;;14.30;99.90;;;;;;5007581;28;20473;-75
2022/09/13 05:36:45;;;;;;;7.30;4.90;;;14.30;99.90;;;;;;5008112;28;21026;-75
2022/09/13 05:39:16;;;;;;;7.90;5.03;;;14.30;99.90;;;;;;5007636;28;20455;-76
2022/09/13 05:41:43;;;;;;;12.33;5.60;;;14.30;99.90;;;;;;5007523;28;20959;-77
2022/09/13 05:44:11;;;;;;;7.10;5.40;;;14.30;99.90;;;;;;5007024;28;20462;-77
2022/09/13 05:46:38;;;;;;;9.70;5.10;;;14.30;99.90;;;;;;5008176;28;20462;-77
2022/09/13 05:49:05;;;;;;;8.10;4.90;;;14.40;99.90;;;;;;5008063;28;20505;-76
2022/09/13 05:51:32;;;;;;;5.90;4.80;;;14.30;99.90;;;;;;5008088;28;21044;-76
2022/09/13 05:53:59;;;;;;;8.47;5.73;;;14.30;99.90;;;;;;5007258;28;20459;-76
2022/09/13 05:56:27;;;;;;;8.33;6.20;;;14.40;99.90;;;;;;5007336;28;20458;-76
2022/09/13 05:58:54;;;;;;;6.03;5.43;;;14.40;99.90;;;;;;5008872;28;20459;-76
2022/09/13 06:01:24;;;;;;;7.53;5.43;;;14.40;99.90;;;;;;5007801;28;21327;-76
2022/09/13 06:03:53;;;;;;;6.67;5.67;;;14.40;99.90;;;;;;5008080;28;20455;-76
2022/09/13 06:06:20;;;;;;;12.30;5.20;;;14.40;99.90;;;;;;5007160;28;20458;-75
2022/09/13 06:08:47;;;;;;;6.67;4.83;;;14.40;99.90;;;;;;5007421;28;20458;-76
2022/09/13 06:11:15;;;;;;;6.90;5.17;;;14.40;99.90;;;;;;5007154;28;20484;-76
2022/09/13 06:13:43;;;;;;;7.40;5.53;;;14.40;99.90;;;;;;5007950;28;20470;-76
2022/09/13 06:16:12;;;;;;;5.40;4.27;;;14.50;99.90;;;;;;5007178;28;20462;-76
2022/09/13 06:18:40;;;;;;;8.70;5.60;;;14.50;99.90;;;;;;5007632;28;20466;-76
2022/09/13 06:21:09;;;;;;;10.03;5.07;;;14.60;99.90;;;;;;5007274;28;20482;-76
2022/09/13 06:23:36;;;;;;;9.83;5.60;;;14.50;99.90;;;;;;5007041;28;20459;-76
2022/09/13 06:26:04;;;;;;;6.53;5.80;;;14.60;99.90;;;;;;5006814;28;20454;-76
2022/09/13 06:28:32;;;;;;;16.93;5.60;;;14.60;99.90;;;;;;5007455;28;20470;-78
2022/09/13 06:31:04;;;;;;;6.17;5.57;;;14.60;99.90;;;;;;5007206;28;20507;-76
2022/09/13 06:33:32;;;;;;;8.93;6.13;;;14.60;99.90;;;;;;5007468;28;20562;-75
2022/09/13 06:36:05;;;;;;;8.73;6.27;;;14.60;99.90;;;;;;5006933;28;20512;-76
2022/09/13 06:38:32;;;;;;;7.20;6.30;;;14.70;99.90;;;;;;5007101;28;20453;-76
2022/09/13 06:41:05;;;;;;;13.40;5.53;;;14.70;99.90;;;;;;5007325;28;20466;-75
2022/09/13 06:43:32;;;;;;;6.60;5.40;;;14.70;99.90;;;;;;5007299;28;20454;-75
2022/09/13 06:46:03;;;;;;;6.73;5.97;;;14.70;99.90;;;;;;5006124;28;20463;-75
2022/09/13 06:48:34;;;;;;;7.00;6.00;;;14.80;99.90;;;;;;5006405;28;20461;-75
2022/09/13 06:51:04;;;;;;;8.80;6.07;;;14.80;99.90;;;;;;5006385;28;20498;-75
2022/09/13 06:53:32;;;;;;;7.43;5.00;;;14.90;99.90;;;;;;5006817;28;20447;-75
2022/09/13 06:56:05;;;;;;;6.97;5.10;;;14.90;99.90;;;;;;5005753;28;20944;-75
2022/09/13 06:58:33;;;;;;;12.17;5.90;;;14.90;99.90;;;;;;5006826;28;20455;-76
2022/09/13 07:01:11;;;;;;;8.97;5.50;;;15.00;99.90;;;;;;5004948;28;20482;-76
2022/09/13 07:03:38;;;;;;;8.47;5.70;;;15.00;99.90;;;;;;5006691;28;20454;-75
2022/09/13 07:06:12;;;;;;;8.17;5.80;;;15.00;99.90;;;;;;5006129;28;20455;-75
2022/09/13 07:08:40;;;;;;;7.10;5.00;;;15.00;99.90;;;;;;5006548;28;20443;-75
2022/09/13 07:11:07;;;;;;;7.53;4.93;;;15.00;99.90;;;;;;5006143;28;20502;-76
2022/09/13 07:13:37;;;;;;;9.07;5.70;;;15.10;99.90;;;;;;5006379;28;21080;-76
2022/09/13 07:16:05;;;;;;;10.57;5.40;;;15.20;99.90;;;;;;5006177;28;20469;-76
2022/09/13 07:18:32;;;;;;;7.33;5.47;;;15.20;99.90;;;;;;5006551;28;20462;-76
2022/09/13 07:21:02;;;;;;;8.27;5.77;;;15.30;99.90;;;;;;5005665;28;20569;-76
2022/09/13 07:23:31;;;;;;;6.17;5.30;;;15.30;99.90;;;;;;5004817;28;20932;-77
2022/09/13 07:26:03;;;;;;;10.30;5.50;;;15.40;99.90;;;;;;5004372;28;20975;-76
2022/09/13 07:28:31;;;;;;;7.97;5.40;;;15.50;99.90;;;;;;5005806;28;20466;-76
2022/09/13 07:31:05;;;;;;;6.70;5.23;;;15.60;99.90;;;;;;5005421;28;20497;-76
2022/09/13 07:33:32;;;;;;;5.90;5.33;;;15.60;99.90;;;;;;5005681;28;20469;-76
2022/09/13 07:36:01;;;;;;;7.47;4.73;;;15.60;99.90;;;;;;5005358;28;20466;-76
2022/09/13 07:38:27;;;;;;;6.53;5.07;;;15.70;99.90;;;;;;5005585;28;20558;-76
2022/09/13 07:40:57;;;;;;;6.87;5.30;;;15.80;99.90;;;;;;5005370;28;20565;-76
2022/09/13 07:43:24;;;;;;;5.17;4.67;;;15.90;99.90;;;;;;5005716;28;20554;-77
2022/09/13 07:45:57;;;;;;;5.27;3.93;;;15.90;99.90;;;;;;5005502;28;20625;-77
2022/09/13 07:48:25;;;;;;;6.20;4.07;;;16.10;99.90;;;;;;5005835;28;20807;-77
2022/09/13 07:51:00;;;;;;;5.77;3.77;;;16.20;99.90;;;;;;5005397;28;20499;-76
2022/09/13 07:53:27;;;;;;;4.00;3.43;;;16.30;99.90;;;;;;5005559;28;20462;-76
2022/09/13 07:55:54;;;;;;;4.70;4.00;;;16.60;99.90;;;;;;5005172;28;20490;-76
2022/09/13 07:58:22;;;;;;;9.60;4.17;;;16.90;99.90;;;;;;5005329;28;20454;-77
2022/09/13 08:00:49;;;;;;;7.10;3.83;;;17.10;99.90;;;;;;5003985;28;20487;-77
2022/09/13 08:03:15;;;;;;;4.40;3.80;;;17.30;99.90;;;;;;5005561;28;20465;-77
2022/09/13 08:05:42;;;;;;;4.77;3.40;;;17.50;99.90;;;;;;5004200;28;20545;-76
2022/09/13 08:08:09;;;;;;;4.20;3.80;;;17.50;99.90;;;;;;5005516;28;20753;-76
2022/09/13 08:10:36;;;;;;;3.83;3.40;;;17.60;99.90;;;;;;5005506;28;20504;-76
2022/09/13 08:13:03;;;;;;;5.33;3.13;;;17.70;99.90;;;;;;5005438;28;20465;-77
2022/09/13 08:15:31;;;;;;;3.40;2.70;;;17.80;99.90;;;;;;5004527;28;20465;-77
2022/09/13 08:17:57;;;;;;;2.73;2.53;;;17.80;99.90;;;;;;5005137;28;20557;-77
2022/09/13 08:20:24;;;;;;;4.73;2.90;;;17.80;99.90;;;;;;5005005;28;21001;-77
2022/09/13 08:22:51;;;;;;;8.63;2.80;;;17.90;99.90;;;;;;5006430;28;20457;-77
2022/09/13 08:25:18;;;;;;;2.67;2.47;;;18.00;99.90;;;;;;5004923;28;20454;-77
2022/09/13 08:27:45;;;;;;;2.97;2.67;;;18.20;99.90;;;;;;5005443;28;20958;-77
2022/09/13 08:30:12;;;;;;;3.37;2.50;;;18.20;99.90;;;;;;5005034;28;20894;-76
2022/09/13 08:32:40;;;;;;;2.30;2.10;;;18.30;99.90;;;;;;5004574;28;20881;-76
2022/09/13 08:35:08;;;;;;;2.50;2.30;;;18.40;99.90;;;;;;5004743;28;20469;-76
2022/09/13 08:37:35;;;;;;;3.50;2.43;;;18.70;99.90;;;;;;5005470;28;20459;-76
2022/09/13 08:40:03;;;;;;;3.27;2.27;;;18.90;99.90;;;;;;5005241;28;20451;-76
2022/09/13 08:42:44;;;;;;;3.50;2.70;;;19.00;99.90;;;;;;5005152;28;20486;-76
2022/09/13 08:45:11;;;;;;;3.83;2.67;;;19.40;99.90;;;;;;5004898;28;20520;-76
2022/09/13 08:47:43;;;;;;;3.87;2.67;;;19.60;99.90;;;;;;5005179;28;20974;-76
2022/09/13 08:50:17;;;;;;;4.20;2.47;;;19.80;99.90;;;;;;5000044;28;20493;-76
2022/09/13 08:52:55;;;;;;;4.57;2.63;;;20.00;99.90;;;;;;5004557;28;20461;-76
2022/09/13 08:55:34;;;;;;;4.70;2.53;;;20.10;99.90;;;;;;5003190;28;20898;-76
2022/09/13 08:58:11;;;;;;;5.00;3.03;;;20.40;99.90;;;;;;5004801;28;20443;-76
2022/09/13 09:00:40;;;;;;;4.07;2.50;;;20.40;99.90;;;;;;5005389;28;20576;-76
2022/09/13 09:03:20;;;;;;;7.13;2.53;;;20.50;99.90;;;;;;5005915;28;20447;-79
2022/09/13 09:05:49;;;;;;;3.33;2.70;;;20.60;99.90;;;;;;5004648;28;20477;-76
2022/09/13 09:08:27;;;;;;;3.60;2.70;;;20.60;99.90;;;;;;5005251;28;20493;-77
2022/09/13 09:10:58;;;;;;;2.37;2.17;;;20.80;99.90;;;;;;5005266;28;20552;-77
2022/09/13 09:13:30;;;;;;;5.17;2.30;;;20.90;99.90;;;;;;5005214;28;20447;-77
2022/09/13 09:15:59;;;;;;;5.13;2.30;;;20.90;99.90;;;;;;5005304;28;20443;-77
2022/09/13 09:18:32;;;;;;;2.33;2.13;;;21.00;99.90;;;;;;5008578;28;20450;-78
2022/09/13 09:21:02;;;;;;;3.30;2.27;;;21.10;99.90;;;;;;5008770;28;20470;-77
2022/09/13 09:23:40;;;;;;;2.27;1.97;;;21.10;99.90;;;;;;5008620;28;20455;-77
2022/09/13 09:26:16;;;;;;;4.40;2.63;;;21.10;99.90;;;;;;5007122;28;20464;-77
2022/09/13 09:28:44;;;;;;;3.83;2.43;;;21.20;99.90;;;;;;5007048;28;20468;-77
2022/09/13 09:31:15;;;;;;;2.97;2.33;;;21.30;99.90;;;;;;5007707;28;20505;-77
2022/09/13 09:33:54;;;;;;;4.90;2.40;;;21.30;99.90;;;;;;5008038;28;21208;-76
2022/09/13 09:36:29;;;;;;;3.93;2.73;;;21.40;99.90;;;;;;5007386;28;20458;-76
2022/09/13 09:38:56;;;;;;;2.50;2.23;;;21.50;99.90;;;;;;5008444;28;20463;-75
2022/09/13 09:41:27;;;;;;;3.97;2.20;;;21.50;99.90;;;;;;5008471;28;20483;-76
2022/09/13 09:44:01;;;;;;;3.53;2.40;;;21.60;99.90;;;;;;5008592;28;20435;-75
2022/09/13 09:46:31;;;;;;;2.50;1.87;;;21.70;99.90;;;;;;5008244;28;20439;-76
2022/09/13 09:50:07;;;;;;;3.63;1.77;;;21.70;99.90;;;;;;5008176;28;20469;-76
2022/09/13 09:51:55;;;;;;;6.67;2.30;;;21.80;99.90;;;;;;5007651;28;20602;-76
2022/09/13 09:54:23;;;;;;;2.17;1.87;;;21.80;99.90;;;;;;5007769;28;20482;-75
2022/09/13 09:56:53;;;;;;;2.70;2.13;;;21.80;99.90;;;;;;5008269;28;20459;-75
2022/09/13 09:59:32;;;;;;;3.83;2.07;;;21.90;99.90;;;;;;5008025;28;20574;-75
2022/09/13 10:02:03;;;;;;;5.27;1.97;;;21.90;99.90;;;;;;5007809;28;20522;-75
2022/09/13 10:04:32;;;;;;;2.93;2.00;;;21.90;99.90;;;;;;5007198;28;20439;-75
2022/09/13 10:07:11;;;;;;;2.70;2.10;;;22.10;99.90;;;;;;5008099;28;20459;-75
2022/09/13 10:09:38;;;;;;;4.70;2.20;;;22.20;99.90;;;;;;5007866;28;20462;-75
2022/09/13 10:12:06;;;;;;;3.83;2.00;;;22.30;99.90;;;;;;5007065;28;20503;-75
2022/09/13 10:14:38;;;;;;;3.87;2.17;;;22.60;99.90;;;;;;5006468;28;20463;-76
2022/09/13 10:17:17;;;;;;;2.30;1.80;;;22.80;99.90;;;;;;5006770;28;20465;-76
2022/09/13 10:19:55;;;;;;;1.80;1.70;;;22.90;99.90;;;;;;5007472;28;20537;-75
2022/09/13 10:22:22;;;;;;;2.07;1.83;;;23.10;99.90;;;;;;5006621;28;20533;-75
2022/09/13 10:24:50;;;;;;;2.23;1.37;;;23.70;99.90;;;;;;5006746;28;20480;-76
2022/09/13 10:27:29;;;;;;;2.00;1.57;;;24.50;99.90;;;;;;5007099;28;20462;-75
2022/09/13 10:29:58;;;;;;;1.87;1.53;;;24.80;99.90;;;;;;5007516;28;20458;-77
2022/09/13 10:32:26;;;;;;;3.27;2.10;;;24.60;99.90;;;;;;5007383;28;20548;-77
2022/09/13 10:34:55;;;;;;;2.10;1.63;;;24.60;99.90;;;;;;5006480;28;21046;-76
2022/09/13 10:37:29;;;;;;;2.30;1.73;;;24.70;99.90;;;;;;5007488;28;20465;-76
2022/09/13 10:40:01;;;;;;;2.67;1.90;;;24.90;99.90;;;;;;5007232;28;20447;-75
2022/09/13 10:42:29;;;;;;;2.60;1.60;;;25.10;99.90;;;;;;5006861;28;20562;-76
2022/09/13 10:44:59;;;;;;;1.57;1.47;;;25.50;99.90;;;;;;5006791;28;20471;-76
2022/09/13 10:47:32;;;;;;;1.87;1.57;;;25.70;99.90;;;;;;5006881;28;20462;-76
2022/09/13 10:50:17;;;;;;;2.20;1.60;;;25.70;99.90;;;;;;5007136;28;20490;-76
2022/09/13 10:52:45;;;;;;;3.57;1.70;;;26.10;99.90;;;;;;5006901;28;20842;-76
2022/09/13 10:55:30;;;;;;;2.13;1.70;;;26.20;99.90;;;;;;5006312;28;20458;-76
2022/09/13 10:58:19;;;;;;;1.80;1.60;;;26.20;99.90;;;;;;5007354;28;20473;-77
2022/09/13 11:01:14;;;;;;;1.90;1.50;;;26.10;99.90;;;;;;5006608;28;20486;-77
2022/09/13 11:03:59;;;;;;;3.90;1.70;;;26.10;99.90;;;;;;5007187;28;20460;-77
2022/09/13 11:06:36;;;;;;;3.00;1.40;;;26.00;99.90;;;;;;5006349;28;20450;-77
2022/09/13 11:09:10;;;;;;;2.13;1.47;;;26.00;99.90;;;;;;5006359;28;20444;-77
2022/09/13 11:11:45;;;;;;;2.73;1.40;;;26.10;99.90;;;;;;5006065;28;20501;-77
2022/09/13 11:14:24;;;;;;;3.80;1.40;;;26.40;99.90;;;;;;5005686;28;20958;-77
2022/09/13 11:17:02;;;;;;;3.00;1.63;;;26.70;99.90;;;;;;5006164;28;20455;-77
2022/09/13 11:20:08;;;;;;;2.70;1.47;;;26.60;99.90;;;;;;5006334;28;20455;-77
2022/09/13 11:23:04;;;;;;;2.43;1.30;;;26.60;99.90;;;;;;4992796;28;20597;-77
2022/09/13 11:25:42;;;;;;;3.00;1.60;;;26.50;99.90;;;;;;5005670;28;20458;-77
2022/09/13 11:28:17;;;;;;;2.80;1.60;;;26.60;99.90;;;;;;5006806;28;20462;-77
2022/09/13 11:30:59;;;;;;;2.23;1.40;;;26.70;99.90;;;;;;5005864;28;20498;-76
2022/09/13 11:33:41;;;;;;;2.40;1.70;;;26.60;99.90;;;;;;5006163;28;20463;-76
2022/09/13 11:36:47;;;;;;;1.63;1.30;;;26.60;99.90;;;;;;5005622;28;20952;-77
2022/09/13 11:39:28;;;;;;;2.27;1.30;;;26.40;99.90;;;;;;4958877;28;20471;-77
2022/09/13 11:42:10;;;;;;;1.60;1.20;;;26.40;99.90;;;;;;5006060;28;21231;-77
2022/09/13 11:45:09;;;;;;;4.03;1.57;;;26.30;99.90;;;;;;5004840;28;20463;-77
2022/09/13 11:47:45;;;;;;;3.33;1.30;;;26.30;99.90;;;;;;5005686;28;20455;-77
2022/09/13 11:50:26;;;;;;;4.60;1.50;;;26.10;99.90;;;;;;5005974;28;20481;-77
2022/09/13 11:53:04;;;;;;;1.40;1.30;;;26.10;99.90;;;;;;5005608;28;20553;-77
2022/09/13 11:55:38;;;;;;;5.93;1.50;;;26.10;99.90;;;;;;5005123;28;20459;-77
2022/09/13 11:58:11;;;;;;;4.80;1.67;;;26.00;99.90;;;;;;5006210;28;20478;-77
2022/09/13 12:00:43;;;;;;;3.33;1.57;;;25.90;99.90;;;;;;5005433;28;20497;-77
2022/09/13 12:03:17;;;;;;;3.27;1.73;;;26.00;99.90;;;;;;5005880;28;20454;-77
2022/09/13 12:05:48;;;;;;;2.77;1.40;;;26.00;99.90;;;;;;5005366;28;20458;-77
2022/09/13 12:08:20;;;;;;;4.27;1.30;;;26.00;99.90;;;;;;5006336;28;20451;-76
2022/09/13 12:10:51;;;;;;;1.57;1.40;;;26.10;99.90;;;;;;5005327;28;20483;-76
2022/09/13 12:13:22;;;;;;;3.97;1.70;;;26.10;99.90;;;;;;5004569;28;20451;-77
2022/09/13 12:15:55;;;;;;;2.70;1.50;;;26.10;99.90;;;;;;5004194;28;20431;-77
2022/09/13 12:18:26;;;;;;;2.17;1.40;;;26.20;99.90;;;;;;5004889;28;20915;-76
2022/09/13 12:20:56;;;;;;;2.50;1.30;;;26.30;99.90;;;;;;5004957;28;20478;-77
2022/09/13 12:23:28;;;;;;;4.93;1.70;;;26.40;99.90;;;;;;5004776;28;21020;-77
2022/09/13 12:26:03;;;;;;;3.70;1.40;;;26.40;99.90;;;;;;5003643;28;20500;-77
2022/09/13 12:28:34;;;;;;;4.37;1.17;;;26.40;99.90;;;;;;5005082;28;20443;-76
2022/09/13 12:31:06;;;;;;;1.50;1.30;;;26.50;99.90;;;;;;5004685;28;20521;-77
2022/09/13 12:33:34;;;;;;;5.77;1.60;;;26.50;99.90;;;;;;5004692;28;20434;-77
2022/09/13 12:36:27;;;;;;;1.80;1.50;;;26.60;99.90;;;;;;5003696;28;20562;-76
2022/09/13 12:39:34;;;;;;;2.97;1.40;;;26.60;99.90;;;;;;5003558;28;20443;-77
2022/09/13 12:42:23;;;;;;;1.50;1.30;;;26.60;99.90;;;;;;4995063;28;20505;-77
2022/09/13 12:45:05;;;;;;;2.07;1.50;;;26.80;99.90;;;;;;5003663;28;20459;-77
2022/09/13 12:47:52;;;;;;;2.50;1.60;;;27.00;99.90;;;;;;5004649;28;20443;-77
2022/09/13 12:50:45;;;;;;;1.57;1.47;;;27.40;99.90;;;;;;5005256;28;20465;-77
2022/09/13 12:53:27;;;;;;;2.97;1.60;;;27.70;99.90;;;;;;5007446;28;20455;-77
2022/09/13 12:56:24;;;;;;;1.90;1.50;;;27.90;99.90;;;;;;5007572;28;20526;-76
2022/09/13 12:59:23;;;;;;;1.43;1.33;;;28.00;99.90;;;;;;5008457;28;20454;-78
2022/09/13 13:01:51;;;;;;;2.83;1.70;;;28.00;99.90;;;;;;5001224;28;20490;-75
2022/09/13 13:04:22;;;;;;;3.50;1.43;;;27.90;99.90;;;;;;5006800;28;20466;-77
2022/09/13 13:06:52;;;;;;;3.63;1.40;;;27.90;99.90;;;;;;5008213;28;20809;-77
2022/09/13 13:09:28;;;;;;;1.40;1.30;;;28.20;99.90;;;;;;5007965;28;20459;-77
2022/09/13 13:11:57;;;;;;;2.40;1.40;;;28.40;99.90;;;;;;5006809;28;20498;-77
2022/09/13 13:14:52;;;;;;;1.53;1.30;;;28.30;99.90;;;;;;5007026;28;20533;-77
2022/09/13 13:17:38;;;;;;;3.73;1.63;;;28.20;99.90;;;;;;5008310;28;20453;-77
2022/09/13 13:20:42;;;;;;;3.27;1.50;;;28.20;99.90;;;;;;5008382;28;20434;-77
2022/09/13 13:23:22;;;;;;;2.53;1.43;;;28.40;99.90;;;;;;5008065;28;20460;-77
2022/09/13 13:26:07;;;;;;;6.10;1.70;;;28.40;99.90;;;;;;5008156;28;20509;-78
2022/09/13 13:29:15;;;;;;;2.43;1.13;;;28.30;99.90;;;;;;5008358;28;20509;-78
2022/09/13 13:32:06;;;;;;;1.50;1.33;;;28.20;99.90;;;;;;4927928;29;21010;-76
2022/09/13 13:34:43;;;;;;;4.03;1.40;;;28.20;99.90;;;;;;4927813;29;20478;-76
2022/09/13 13:37:32;;;;;;;2.50;1.30;;;28.10;99.90;;;;;;4985941;28;20553;-76
2022/09/13 13:40:25;;;;;;;3.77;1.40;;;28.20;99.90;;;;;;5008614;28;20443;-76
2022/09/13 13:43:16;;;;;;;2.20;1.43;;;28.30;99.90;;;;;;5004674;28;20463;-76
2022/09/13 13:45:57;;;;;;;1.83;1.30;;;28.20;99.90;;;;;;5007520;28;20459;-76
2022/09/13 13:48:38;;;;;;;1.77;1.37;;;28.10;99.90;;;;;;5007952;28;20462;-77
2022/09/13 13:51:19;;;;;;;4.50;1.43;;;28.10;99.90;;;;;;5007404;28;20481;-76
2022/09/13 13:53:52;;;;;;;3.30;1.50;;;28.00;99.90;;;;;;5006813;28;20511;-76
2022/09/13 13:56:25;;;;;;;5.90;1.50;;;28.00;99.90;;;;;;5007226;28;20455;-76
2022/09/13 13:58:56;;;;;;;2.30;1.50;;;28.00;99.90;;;;;;5007692;28;20651;-76
2022/09/13 14:01:26;;;;;;;2.60;1.37;;;28.00;99.90;;;;;;5006768;28;20482;-76
2022/09/13 14:04:30;;;;;;;3.43;1.30;;;28.10;99.90;;;;;;5007324;28;20458;-77
2022/09/13 14:07:05;;;;;;;2.40;1.40;;;28.30;99.90;;;;;;5007664;28;20561;-76
2022/09/13 14:09:41;;;;;;;1.50;1.20;;;28.40;99.90;;;;;;5007256;28;20454;-77
2022/09/13 14:12:27;;;;;;;1.60;1.10;;;28.50;99.90;;;;;;5007676;28;20486;-77
2022/09/13 14:15:16;;;;;;;1.93;1.20;;;28.60;99.90;;;;;;5006912;28;20466;-76
2022/09/13 14:18:09;;;;;;;2.07;1.00;;;28.70;99.90;;;;;;5007530;28;20455;-77
2022/09/13 14:20:38;;;;;;;1.57;1.20;;;28.80;99.90;;;;;;5006843;28;21271;-76
2022/09/13 14:23:18;;;;;;;1.70;1.10;;;28.90;99.90;;;;;;5006862;28;20455;-76
2022/09/13 14:25:45;;;;;;;1.40;1.10;;;29.00;99.90;;;;;;5006472;28;20455;-76
2022/09/13 14:28:16;;;;;;;2.40;1.20;;;29.10;99.90;;;;;;5006792;28;20465;-77
2022/09/13 14:30:45;;;;;;;2.70;1.20;;;29.20;99.90;;;;;;5007129;28;20556;-78
2022/09/13 14:33:24;;;;;;;1.40;0.97;;;29.20;99.90;;;;;;5006319;28;20827;-77
2022/09/13 14:36:00;;;;;;;1.20;0.90;;;29.30;99.90;;;;;;5006060;28;20451;-75
2022/09/13 14:38:32;;;;;;;1.20;0.80;;;29.30;99.90;;;;;;5006830;28;20459;-76
2022/09/13 14:41:01;;;;;;;1.23;1.10;;;29.40;99.90;;;;;;5006656;28;20482;-76
2022/09/13 14:43:30;;;;;;;0.97;0.87;;;29.50;99.90;;;;;;5006796;28;20977;-76
2022/09/13 14:46:04;;;;;;;1.73;1.00;;;29.60;99.90;;;;;;5005970;28;20459;-76
2022/09/13 14:48:36;;;;;;;1.00;0.90;;;29.70;99.90;;;;;;5006516;28;21118;-77
2022/09/13 14:51:12;;;;;;;1.27;1.03;;;29.70;99.90;;;;;;5006326;28;20483;-77
2022/09/13 14:53:51;;;;;;;3.67;1.33;;;29.70;99.90;;;;;;5006463;28;20478;-77
2022/09/13 14:56:24;;;;;;;1.43;0.90;;;29.70;99.90;;;;;;5005817;28;20443;-78
2022/09/13 14:58:55;;;;;;;2.40;0.90;;;29.80;99.90;;;;;;5006670;28;20451;-76
2022/09/13 15:01:28;;;;;;;1.30;0.83;;;29.70;99.90;;;;;;5006360;28;20490;-75
2022/09/13 15:03:57;;;;;;;2.60;1.00;;;29.80;99.90;;;;;;5006233;28;20941;-76
2022/09/13 15:06:29;;;;;;;1.37;1.03;;;29.80;99.90;;;;;;5006036;28;20718;-77
2022/09/13 15:08:59;;;;;;;1.30;1.00;;;29.70;99.90;;;;;;5004886;28;20450;-77
2022/09/13 15:11:32;;;;;;;1.37;1.00;;;29.70;99.90;;;;;;5005597;28;20479;-76
2022/09/13 15:14:23;;;;;;;1.10;0.80;;;29.70;99.90;;;;;;5005886;28;20454;-77
2022/09/13 15:16:59;;;;;;;0.90;0.80;;;29.70;99.90;;;;;;5005987;28;20435;-77
2022/09/13 15:19:41;;;;;;;1.83;0.80;;;29.70;99.90;;;;;;5006053;28;20451;-78
2022/09/13 15:22:22;;;;;;;4.33;0.90;;;29.80;99.20;;;;;;5006187;28;20470;-73
2022/09/13 15:24:51;;;;;;;2.07;0.80;;;30.00;98.40;;;;;;5006257;28;20447;-73
2022/09/13 15:27:25;;;;;;;1.00;0.83;;;30.00;97.80;;;;;;5006078;28;20454;-71
2022/09/13 15:29:54;;;;;;;1.93;1.10;;;30.00;99.90;;;;;;5006710;28;20439;-72
2022/09/13 15:32:23;;;;;;;1.50;1.00;;;30.00;99.30;;;;;;5006311;28;20502;-73
2022/09/13 15:34:51;;;;;;;1.37;1.10;;;30.00;99.90;;;;;;5005736;28;20470;-71
2022/09/13 15:37:29;;;;;;;1.37;1.13;;;30.00;99.90;;;;;;5006192;28;20463;-72
2022/09/13 15:40:21;;;;;;;2.53;1.37;;;29.90;99.90;;;;;;5006174;28;20443;-73
2022/09/13 15:42:49;;;;;;;2.17;1.20;;;29.80;99.90;;;;;;5006300;28;20457;-73
2022/09/13 15:45:17;;;;;;;2.40;1.30;;;29.70;99.90;;;;;;5005260;28;20462;-73
2022/09/13 15:47:48;;;;;;;1.70;1.10;;;29.60;99.90;;;;;;5006059;28;20798;-74
2022/09/13 15:50:25;;;;;;;1.20;0.93;;;29.50;99.90;;;;;;5005889;28;20462;-74
2022/09/13 15:52:54;;;;;;;1.30;1.20;;;29.40;99.90;;;;;;5005889;28;20528;-73
2022/09/13 15:55:21;;;;;;;4.20;1.40;;;29.30;99.90;;;;;;5005180;28;20455;-71
2022/09/13 15:57:48;;;;;;;4.00;1.47;;;29.20;99.90;;;;;;5005740;28;20458;-71
2022/09/13 16:00:17;;;;;;;2.88;1.30;;;29.00;99.90;;;;;;5005439;28;20513;-71
2022/09/13 16:02:45;;;;;;;2.37;1.43;;;28.90;99.90;;;;;;5005676;28;20219;-71
2022/09/13 16:05:12;;;;;;;2.57;1.43;;;28.90;99.90;;;;;;5004642;28;20626;-71
2022/09/13 16:07:40;;;;;;;2.23;1.43;;;28.80;99.90;;;;;;5005796;28;20459;-72
2022/09/13 16:10:12;;;;;;;2.37;1.17;;;28.70;99.90;;;;;;5006081;28;20458;-71
2022/09/13 16:12:39;;;;;;;2.63;1.40;;;28.60;99.90;;;;;;5006011;28;20478;-72
2022/09/13 16:15:07;;;;;;;2.30;1.50;;;28.40;99.90;;;;;;5005386;28;20474;-71
2022/09/13 16:17:34;;;;;;;3.63;1.87;;;28.30;99.90;;;;;;5005987;28;20478;-73
2022/09/13 16:20:01;;;;;;;2.30;1.37;;;28.20;99.90;;;;;;5008499;28;20485;-78
2022/09/13 16:22:28;;;;;;;2.83;1.40;;;28.10;99.90;;;;;;5007807;28;21443;-78
2022/09/13 16:24:55;;;;;;;7.67;2.30;;;28.00;99.90;;;;;;5007938;28;20459;-78
2022/09/13 16:27:25;;;;;;;2.07;1.50;;;28.00;99.90;;;;;;5011490;28;20489;-78
2022/09/13 16:29:52;;;;;;;2.13;1.50;;;27.80;99.90;;;;;;5010883;28;20513;-78
2022/09/13 16:32:19;;;;;;;3.10;1.83;;;27.80;99.90;;;;;;5009602;28;20502;-78
2022/09/13 16:34:46;;;;;;;3.37;1.80;;;27.60;99.90;;;;;;5008879;28;20463;-78
2022/09/13 16:37:14;;;;;;;4.00;1.80;;;27.60;99.90;;;;;;5009921;28;20466;-78
2022/09/13 16:39:41;;;;;;;2.50;1.53;;;27.50;99.90;;;;;;5009737;28;20509;-78
2022/09/13 16:42:14;;;;;;;1.67;1.20;;;27.40;99.90;;;;;;5009272;28;20478;-78
2022/09/13 16:44:43;;;;;;;4.47;1.70;;;27.30;99.90;;;;;;5008383;28;20453;-77
2022/09/13 16:47:10;;;;;;;7.60;2.03;;;27.20;99.90;;;;;;5009188;28;20462;-77
2022/09/13 16:49:37;;;;;;;3.37;1.50;;;27.20;99.90;;;;;;5009465;28;20473;-77
2022/09/13 16:52:04;;;;;;;3.37;1.80;;;27.10;99.90;;;;;;5009185;28;20475;-77
2022/09/13 16:54:33;;;;;;;3.10;1.90;;;27.00;99.90;;;;;;5009038;28;20470;-77
2022/09/13 16:57:01;;;;;;;2.90;1.57;;;27.00;99.90;;;;;;5009182;28;20467;-78
2022/09/13 16:59:27;;;;;;;4.33;2.53;;;26.90;99.90;;;;;;5009292;28;20459;-78
2022/09/13 17:01:56;;;;;;;4.73;2.20;;;26.80;99.90;;;;;;5008827;28;20498;-77
2022/09/13 17:04:23;;;;;;;2.50;2.00;;;26.70;99.90;;;;;;5008524;28;20548;-77
2022/09/13 17:06:50;;;;;;;3.67;1.83;;;26.70;99.90;;;;;;5009240;28;20459;-76
2022/09/13 17:09:20;;;;;;;2.73;1.90;;;26.60;99.90;;;;;;5009926;28;20463;-77
2022/09/13 17:11:47;;;;;;;3.97;1.77;;;26.50;99.90;;;;;;5009824;28;20487;-77
2022/09/13 17:14:16;;;;;;;3.93;1.73;;;26.40;99.90;;;;;;5008362;28;20505;-77